Terminal Aerodrome Forecast
Issued by NWS

Home | Current Version | Previous Version | Text Only | Print | Product List | Glossary On
Versions: 1 2 3 4 5 6 7 8 9 10 11 12 13 14
740
FTUS44 KTSA 281733
TAFMLC
TAF
KMLC 281733Z 2818/2918 20005KT P6SM SCT040
     FM290100 17003KT P6SM SCT250
     FM291000 18003KT P6SM SCT040 BKN250 PROB30 2912/2918 5SM -TSRA
      BKN040CB=

USA.gov is the U.S. government's official web portal to all federal, state and local government web resources and services.